地図

経路データ

SID SEASON NUMBER BASIN SUBBASIN NAME ISO_TIME NATURE LAT LON WMO_WIND WMO_PRES WMO_AGENCY TRACK_TYPE DIST2LAND LANDFALL IFLAG USA_AGENCY USA_ATCF_ID USA_LAT USA_LON USA_RECORD USA_STATUS USA_WIND USA_PRES USA_SSHS USA_R34_NE USA_R34_SE USA_R34_SW USA_R34_NW USA_R50_NE USA_R50_SE USA_R50_SW USA_R50_NW USA_R64_NE USA_R64_SE USA_R64_SW USA_R64_NW USA_POCI USA_ROCI USA_RMW USA_EYE TOKYO_LAT TOKYO_LON TOKYO_GRADE TOKYO_WIND TOKYO_PRES TOKYO_R50_DIR TOKYO_R50_LONG TOKYO_R50_SHORT TOKYO_R30_DIR TOKYO_R30_LONG TOKYO_R30_SHORT TOKYO_LAND CMA_LAT CMA_LON CMA_CAT CMA_WIND CMA_PRES HKO_LAT HKO_LON HKO_CAT HKO_WIND HKO_PRES NEWDELHI_LAT NEWDELHI_LON NEWDELHI_GRADE NEWDELHI_WIND NEWDELHI_PRES NEWDELHI_CI NEWDELHI_DP NEWDELHI_POCI REUNION_LAT REUNION_LON REUNION_TYPE REUNION_WIND REUNION_PRES REUNION_TNUM REUNION_CI REUNION_RMW REUNION_R34_NE REUNION_R34_SE REUNION_R34_SW REUNION_R34_NW REUNION_R50_NE REUNION_R50_SE REUNION_R50_SW REUNION_R50_NW REUNION_R64_NE REUNION_R64_SE REUNION_R64_SW REUNION_R64_NW BOM_LAT BOM_LON BOM_TYPE BOM_WIND BOM_PRES BOM_TNUM BOM_CI BOM_RMW BOM_R34_NE BOM_R34_SE BOM_R34_SW BOM_R34_NW BOM_R50_NE BOM_R50_SE BOM_R50_SW BOM_R50_NW BOM_R64_NE BOM_R64_SE BOM_R64_SW BOM_R64_NW BOM_ROCI BOM_POCI BOM_EYE BOM_POS_METHOD BOM_PRES_METHOD NADI_LAT NADI_LON NADI_CAT NADI_WIND NADI_PRES WELLINGTON_LAT WELLINGTON_LON WELLINGTON_WIND WELLINGTON_PRES DS824_LAT DS824_LON DS824_STAGE DS824_WIND DS824_PRES TD9636_LAT TD9636_LON TD9636_STAGE TD9636_WIND TD9636_PRES TD9635_LAT TD9635_LON TD9635_WIND TD9635_PRES TD9635_ROCI NEUMANN_LAT NEUMANN_LON NEUMANN_CLASS NEUMANN_WIND NEUMANN_PRES MLC_LAT MLC_LON MLC_CLASS MLC_WIND MLC_PRES USA_GUST BOM_GUST BOM_GUST_PER REUNION_GUST REUNION_GUST_PER USA_SEAHGT USA_SEARAD_NE USA_SEARAD_SE USA_SEARAD_SW USA_SEARAD_NW STORM_SPEED STORM_DIR
1866101S15051 1866 11 SI MM NOT_NAMED 1866-04-10 18:00:00 NR -15.0000 51.2000 main 78 64 __________O___ -1 -15.0000 51.2000 7 8 188
1866101S15051 1866 11 SI MM NOT_NAMED 1866-04-10 21:00:00 NR -15.4110 51.1378 main 64 64 __________P___ -1 -15.4110 51.1378 7 8 188
1866101S15051 1866 11 SI MM NOT_NAMED 1866-04-11 00:00:00 NR -15.8276 51.0803 main 78 78 __________P___ -1 -15.8276 51.0803 7 9 187
1866101S15051 1866 11 SI MM NOT_NAMED 1866-04-11 03:00:00 NR -16.2554 51.0327 main 91 91 __________P___ -1 -16.2554 51.0327 7 9 185
1866101S15051 1866 11 SI MM NOT_NAMED 1866-04-11 06:00:00 NR -16.7000 51.0000 main 115 115 __________O___ -1 -16.7000 51.0000 7 9 182
1866101S15051 1866 11 SI MM NOT_NAMED 1866-04-11 09:00:00 NR -17.1631 50.9855 main 135 135 __________P___ -1 -17.1631 50.9855 7 9 0
1866101S15051 1866 11 SI MM NOT_NAMED 1866-04-11 12:00:00 NR -17.6300 50.9848 main 155 155 __________P___ -1 -17.6300 50.9848 7 9 0
1866101S15051 1866 11 SI MM NOT_NAMED 1866-04-11 15:00:00 NR -18.0819 50.9917 main 164 164 __________P___ -1 -18.0819 50.9917 7 9 178
1866101S15051 1866 11 SI MM NOT_NAMED 1866-04-11 18:00:00 NR -18.5000 51.0000 main 172 172 __________O___ -1 -18.5000 51.0000 7 7 181
1866101S15051 1866 11 SI MM NOT_NAMED 1866-04-11 21:00:00 NR -18.8081 50.9881 main 181 181 __________P___ -1 -18.8081 50.9881 7 6 0
1866101S15051 1866 11 SI MM NOT_NAMED 1866-04-12 00:00:00 NR -19.0900 50.9780 main 194 194 __________P___ -1 -19.0900 50.9780 7 6 0
1866101S15051 1866 11 SI MM NOT_NAMED 1866-04-12 03:00:00 NR -19.4019 50.9789 main 204 204 __________P___ -1 -19.4019 50.9789 7 7 0
1866101S15051 1866 11 SI MM NOT_NAMED 1866-04-12 06:00:00 NR -19.8000 51.0000 main 218 218 __________O___ -1 -19.8000 51.0000 7 10 177
1866101S15051 1866 11 SI MM NOT_NAMED 1866-04-12 09:00:00 NR -20.3606 51.0335 main 233 233 __________P___ -1 -20.3606 51.0335 7 12 176
1866101S15051 1866 11 SI MM NOT_NAMED 1866-04-12 12:00:00 NR -21.0100 51.0907 main 264 264 __________P___ -1 -21.0100 51.0907 7 14 174
1866101S15051 1866 11 SI MM NOT_NAMED 1866-04-12 15:00:00 NR -21.7044 51.1775 main 300 300 __________P___ -1 -21.7044 51.1775 7 14 172
1866101S15051 1866 11 SI MM NOT_NAMED 1866-04-12 18:00:00 NR -22.4000 51.3000 main 326 326 __________O___ -1 -22.4000 51.3000 7 14 169
1866101S15051 1866 11 SI MM NOT_NAMED 1866-04-12 21:00:00 NR -23.0622 51.4617 main 368 368 __________P___ -1 -23.0622 51.4617 7 13 166
1866101S15051 1866 11 SI MM NOT_NAMED 1866-04-13 00:00:00 NR -23.6927 51.6555 main 408 408 __________P___ -1 -23.6927 51.6555 7 13 163
1866101S15051 1866 11 SI MM NOT_NAMED 1866-04-13 03:00:00 NR -24.3018 51.8716 main 438 438 __________P___ -1 -24.3018 51.8716 7 13 161
1866101S15051 1866 11 SI MM NOT_NAMED 1866-04-13 06:00:00 NR -24.9000 52.1000 main 476 __________O___ -1 -24.9000 52.1000 7 13 161

IBTrACS Databaseについて

本データベースは、米国NOAAが公開する1842年以降の世界の熱帯低気圧のベストトラックデータアーカイブInternational Best Track Archive for Climate Stewardship (IBTrACS)を、ウェブで閲覧しやすい形式に変換したものです。

最終更新日:2021-10-21